Pagina principale
METAR-TAF:

METAR-TAF

Aeroporti :

Hoedspruit, Sudafrica

latitudine: 24-21-17S, longitudine: 31-03-01E, altezza: 531 m

Osservazione

Il bollettino è stato emesso 1 ora e 2 minuti fa, alle 07:00 UTC
Vento 13 kt da sud
Temperature 16°C
Umidità 63%
Pressione 1030 hPa

METAR: FAHS 200700Z AUTO 18013KT //// // ////// 16/09 Q1030

Ora: 10:02 (08:02 UTC)

Previsione

Il bollettino è stato emesso 2 ore e 2 minuti fa, alle 06:00 UTC
Previsione valida dal 20 alle 07 UTC al 20 alle 18 UTC
Vento 15 kt da sud con raffiche fino a 25 kt
Visibilità 10 km o più
Nubi sparse ad un'altezza di 800 ft
Nuvoloso ad un'altezza di 1500 ft
Evoluzione graduale
dal 20 alle 08 UTC al 20 alle 10 UTC
Vento 15 kt da sud
Nuvoloso ad un'altezza di 2500 ft

TAF: FAHS 200600Z 2007/2018 17015G25KT 9999 SCT008 BKN015 TX22/2013Z TN17/2007Z BECMG 2008/2010 17015KT BKN025

Osservazioni e previsioni meteorologiche di più di 4000 aeroporti (messaggi METAR e TAF).

Le stazioni disponibili sono rappresentate dai dischi gialli e rossi sulla carta.

Puntare il mouse per vedere il nome della stazione.

Clicca sopra per visualizzare le osservazioni e previsioni meteorologiche.

Per cambiare la mappa : fare clic sui pulsanti verdi con una croce nera per ingrandire, il pulsante verde con un trattino per diminuire, o sulla freccia verde per le mappe adiacenti.


METAR-TAF: